Time,TemperatureF,DewpointF,PressureIn,WindDirection,WindDirectionDegrees,WindSpeedMPH,WindSpeedGustMPH,Humidity,HourlyPrecipIn,Conditions,Clouds,dailyrainin,SoftwareType,DateUTC
2013-08-19 00:00:00,76.5,75.9,30.09,North,0,0.0,0.0,98,0.06,,---,0.00,VWS V14.01,2013-08-19 04:00:00,
2013-08-19 00:10:00,76.1,75.8,30.09,North,0,0.0,0.0,99,0.06,,---,0.00,VWS V14.01,2013-08-19 04:10:00,
2013-08-19 00:20:00,76.0,75.7,30.09,North,0,0.0,0.0,99,0.06,,---,0.00,VWS V14.01,2013-08-19 04:20:00,
2013-08-19 00:30:00,75.8,75.8,30.09,North,0,0.0,0.0,100,0.06,,---,0.00,VWS V14.01,2013-08-19 04:30:00,
2013-08-19 00:40:00,75.6,75.6,30.09,North,0,0.0,0.0,100,0.06,,---,0.00,VWS V14.01,2013-08-19 04:40:00,
2013-08-19 00:50:00,75.4,75.4,30.09,North,0,0.0,0.0,100,0.04,,---,0.00,VWS V14.01,2013-08-19 04:50:00,
2013-08-19 01:00:00,75.1,75.1,30.08,North,0,0.0,0.0,100,0.00,,---,0.00,VWS V14.01,2013-08-19 05:00:00,
2013-08-19 01:10:00,75.1,75.1,30.08,North,0,0.0,0.0,100,0.00,,---,0.00,VWS V14.01,2013-08-19 05:10:00,
2013-08-19 01:20:00,74.7,74.7,30.08,North,0,0.0,0.0,100,0.00,,---,0.00,VWS V14.01,2013-08-19 05:20:00,
2013-08-19 01:30:00,74.6,74.6,30.08,North,0,0.0,0.0,100,0.00,,---,0.00,VWS V14.01,2013-08-19 05:30:00,
2013-08-19 01:40:00,74.4,74.4,30.08,North,0,0.0,0.0,100,0.00,,---,0.00,VWS V14.01,2013-08-19 05:40:00,
2013-08-19 01:50:00,74.4,74.4,30.08,North,0,0.0,0.0,100,0.00,,---,0.00,VWS V14.01,2013-08-19 05:50:00,
2013-08-19 02:00:00,74.2,74.2,30.08,North,0,0.0,0.0,100,0.00,,---,0.00,VWS V14.01,2013-08-19 06:00:00,
2013-08-19 02:10:00,74.0,74.0,30.08,NNE,22,0.0,1.0,100,0.00,,---,0.00,VWS V14.01,2013-08-19 06:10:00,
2013-08-19 02:20:00,73.9,73.9,30.08,NNE,22,0.0,3.0,100,0.00,,---,0.00,VWS V14.01,2013-08-19 06:20:00,
2013-08-19 02:30:00,73.9,73.9,30.07,ENE,68,0.0,3.0,100,0.00,,---,0.00,VWS V14.01,2013-08-19 06:30:00,
2013-08-19 02:40:00,73.7,73.7,30.07,ENE,68,0.0,5.0,100,0.00,,---,0.00,VWS V14.01,2013-08-19 06:40:00,
2013-08-19 02:50:00,73.7,73.7,30.07,ENE,68,0.0,3.0,100,0.00,,---,0.00,VWS V14.01,2013-08-19 06:50:00,
2013-08-19 03:00:00,73.5,73.5,30.06,ENE,68,0.0,5.0,100,0.00,,---,0.00,VWS V14.01,2013-08-19 07:00:00,
2013-08-19 03:10:00,73.3,73.3,30.06,NNE,22,0.0,3.0,100,0.00,,---,0.00,VWS V14.01,2013-08-19 07:10:00,
2013-08-19 03:20:00,73.3,73.3,30.06,NNE,22,0.0,0.0,100,0.00,,---,0.00,VWS V14.01,2013-08-19 07:20:00,
2013-08-19 03:30:00,73.3,73.3,30.06,NNE,22,0.0,0.0,100,0.00,,---,0.00,VWS V14.01,2013-08-19 07:30:00,
2013-08-19 03:40:00,73.3,73.3,30.06,NNE,22,0.0,0.0,100,0.00,,---,0.00,VWS V14.01,2013-08-19 07:40:00,
2013-08-19 03:50:00,73.3,73.3,30.06,NNE,22,0.0,0.0,100,0.00,,---,0.00,VWS V14.01,2013-08-19 07:50:00,
2013-08-19 04:00:00,73.3,73.3,30.07,NNE,22,0.0,0.0,100,0.00,,---,0.00,VWS V14.01,2013-08-19 08:00:00,
2013-08-19 04:10:00,73.2,73.2,30.07,NNE,22,0.0,0.0,100,0.00,,---,0.00,VWS V14.01,2013-08-19 08:10:00,
2013-08-19 04:20:00,73.0,73.0,30.06,NNE,22,0.0,0.0,100,0.00,,---,0.00,VWS V14.01,2013-08-19 08:20:00,
2013-08-19 04:30:00,73.0,73.0,30.06,NNE,22,0.0,1.0,100,0.00,,---,0.00,VWS V14.01,2013-08-19 08:30:00,
2013-08-19 04:40:00,73.0,73.0,30.06,NNE,22,0.0,0.0,100,0.00,,---,0.00,VWS V14.01,2013-08-19 08:40:00,
2013-08-19 04:50:00,72.8,72.8,30.06,NNE,22,0.0,1.0,100,0.02,,---,0.02,VWS V14.01,2013-08-19 08:50:00,
2013-08-19 05:00:00,72.8,72.8,30.06,NNE,22,0.0,0.0,100,0.05,,---,0.05,VWS V14.01,2013-08-19 09:00:00,
2013-08-19 05:10:00,72.7,72.7,30.06,NNE,22,0.0,0.0,100,0.14,,---,0.14,VWS V14.01,2013-08-19 09:10:00,
2013-08-19 05:20:00,72.7,72.7,30.06,NE,45,0.0,1.0,100,0.22,,---,0.22,VWS V14.01,2013-08-19 09:20:00,
2013-08-19 05:30:00,72.3,72.3,30.06,SE,135,0.0,3.0,100,0.23,,---,0.23,VWS V14.01,2013-08-19 09:30:00,
2013-08-19 05:40:00,72.3,72.3,30.06,ENE,68,1.0,5.0,100,0.23,,---,0.23,VWS V14.01,2013-08-19 09:40:00,
2013-08-19 05:50:00,72.1,72.1,30.05,NE,45,2.0,7.0,100,0.23,,---,0.23,VWS V14.01,2013-08-19 09:50:00,
2013-08-19 06:00:00,72.1,72.1,30.05,NE,45,1.0,10.0,100,0.22,,---,0.24,VWS V14.01,2013-08-19 10:00:00,
2013-08-19 06:10:00,72.1,72.1,30.05,ENE,68,1.0,5.0,100,0.22,,---,0.27,VWS V14.01,2013-08-19 10:10:00,
2013-08-19 06:20:00,72.0,72.0,30.05,NE,45,0.0,1.0,100,0.22,,---,0.36,VWS V14.01,2013-08-19 10:20:00,
2013-08-19 06:30:00,72.0,72.0,30.05,NE,45,1.0,5.0,100,0.24,,---,0.46,VWS V14.01,2013-08-19 10:30:00,
2013-08-19 06:40:00,72.0,72.0,30.05,NNE,22,0.0,1.0,100,0.27,,---,0.50,VWS V14.01,2013-08-19 10:40:00,
2013-08-19 06:50:00,72.0,72.0,30.06,NNE,22,0.0,0.0,100,0.28,,---,0.51,VWS V14.01,2013-08-19 10:50:00,
2013-08-19 07:00:00,72.0,72.0,30.06,NE,45,0.0,3.0,100,0.28,,---,0.51,VWS V14.01,2013-08-19 11:00:00,
2013-08-19 07:13:00,77.4,74.9,30.10,NW,320,0.0,0.0,92,0.00,,---,0.00,VWS V14.01,2013-08-19 11:13:00,
2013-08-19 07:14:00,72.0,72.0,30.05,ENE,59,0.0,0.0,100,0.00,,---,0.51,VWS V14.01,2013-08-19 11:14:00,
2013-08-19 07:15:00,72.0,72.0,30.05,ENE,61,0.0,0.0,100,0.00,,---,0.51,VWS V14.01,2013-08-19 11:15:00,
2013-08-19 07:16:00,72.0,72.0,30.05,ENE,59,0.0,0.0,100,0.00,,---,0.51,VWS V14.01,2013-08-19 11:16:00,
2013-08-19 07:18:00,71.8,71.8,30.05,ENE,59,0.0,0.0,100,0.00,,---,0.52,VWS V14.01,2013-08-19 11:18:00,
2013-08-19 07:19:00,71.8,71.8,30.05,ENE,61,0.0,0.0,100,0.00,,---,0.52,VWS V14.01,2013-08-19 11:19:00,
2013-08-19 07:20:00,71.8,71.8,30.05,ENE,59,0.0,0.0,100,0.00,,---,0.52,VWS V14.01,2013-08-19 11:20:00,
2013-08-19 07:21:00,71.8,71.8,30.05,ENE,59,0.0,0.0,100,0.00,,---,0.52,VWS V14.01,2013-08-19 11:21:00,
2013-08-19 07:22:00,71.8,71.8,30.05,ENE,61,0.0,0.0,100,0.00,,---,0.52,VWS V14.01,2013-08-19 11:22:00,
2013-08-19 07:23:00,71.8,71.8,30.05,ENE,59,0.0,0.0,100,0.00,,---,0.52,VWS V14.01,2013-08-19 11:23:00,
2013-08-19 07:24:00,71.8,71.8,30.05,ENE,59,0.0,1.0,100,0.00,,---,0.52,VWS V14.01,2013-08-19 11:24:00,
2013-08-19 07:25:00,71.8,71.8,30.05,ENE,61,0.0,1.0,100,0.00,,---,0.52,VWS V14.01,2013-08-19 11:25:00,
2013-08-19 07:26:00,71.8,71.8,30.05,ENE,59,0.0,1.0,100,0.00,,---,0.52,VWS V14.01,2013-08-19 11:26:00,
2013-08-19 07:27:00,71.8,71.8,30.05,ENE,59,0.0,1.0,100,0.00,,---,0.52,VWS V14.01,2013-08-19 11:27:00,
2013-08-19 07:28:00,71.8,71.8,30.05,ENE,61,0.0,1.0,100,0.00,,---,0.52,VWS V14.01,2013-08-19 11:28:00,
2013-08-19 07:29:00,71.8,71.8,30.05,ENE,59,0.0,1.0,100,0.00,,---,0.52,VWS V14.01,2013-08-19 11:29:00,
2013-08-19 07:30:00,71.8,71.8,30.06,ENE,59,0.0,1.0,100,0.00,,---,0.52,VWS V14.01,2013-08-19 11:30:00,
2013-08-19 07:31:00,71.8,71.8,30.06,ENE,59,0.0,0.0,100,0.00,,---,0.52,VWS V14.01,2013-08-19 11:31:00,
2013-08-19 07:32:00,71.8,71.8,30.06,ENE,59,0.0,0.0,100,0.00,,---,0.52,VWS V14.01,2013-08-19 11:32:00,
2013-08-19 07:33:00,71.8,71.8,30.06,ENE,59,0.0,0.0,100,0.00,,---,0.52,VWS V14.01,2013-08-19 11:33:00,
2013-08-19 07:34:00,71.8,71.8,30.06,ENE,59,0.0,0.0,100,0.00,,---,0.52,VWS V14.01,2013-08-19 11:34:00,
2013-08-19 07:35:00,71.8,71.8,30.06,ENE,59,0.0,0.0,100,0.00,,---,0.52,VWS V14.01,2013-08-19 11:35:00,
2013-08-19 07:36:00,71.8,71.8,30.06,ENE,59,0.0,0.0,100,0.00,,---,0.52,VWS V14.01,2013-08-19 11:36:00,
2013-08-19 07:37:00,71.8,71.8,30.06,ENE,59,0.0,1.0,100,0.00,,---,0.52,VWS V14.01,2013-08-19 11:37:00,
2013-08-19 07:38:00,71.8,71.8,30.06,ENE,59,0.0,1.0,100,0.00,,---,0.52,VWS V14.01,2013-08-19 11:38:00,
2013-08-19 07:39:00,71.8,71.8,30.06,ENE,59,0.0,1.0,100,0.00,,---,0.52,VWS V14.01,2013-08-19 11:39:00,
2013-08-19 07:40:00,71.8,71.8,30.06,ENE,59,0.0,1.0,100,0.00,,---,0.52,VWS V14.01,2013-08-19 11:40:00,
2013-08-19 07:41:00,71.8,71.8,30.06,ENE,59,0.0,0.0,100,0.00,,---,0.52,VWS V14.01,2013-08-19 11:41:00,
2013-08-19 07:42:00,71.8,71.8,30.06,ENE,59,0.0,0.0,100,0.00,,---,0.52,VWS V14.01,2013-08-19 11:42:00,
2013-08-19 07:43:00,71.8,71.8,30.06,ENE,59,0.0,0.0,100,0.00,,---,0.52,VWS V14.01,2013-08-19 11:43:00,
2013-08-19 07:44:00,71.8,71.8,30.06,ENE,59,0.0,0.0,100,0.00,,---,0.52,VWS V14.01,2013-08-19 11:44:00,
2013-08-19 07:45:00,71.8,71.8,30.06,ENE,59,0.0,0.0,100,0.00,,---,0.52,VWS V14.01,2013-08-19 11:45:00,
2013-08-19 07:46:00,71.8,71.8,30.06,ENE,59,0.0,0.0,100,0.00,,---,0.52,VWS V14.01,2013-08-19 11:46:00,
2013-08-19 07:47:00,71.8,71.8,30.06,ENE,59,0.0,0.0,100,0.00,,---,0.52,VWS V14.01,2013-08-19 11:47:00,
2013-08-19 07:48:00,71.8,71.8,30.06,ENE,59,0.0,0.0,100,0.00,,---,0.52,VWS V14.01,2013-08-19 11:48:00,
2013-08-19 07:49:00,71.8,71.8,30.06,ENE,59,0.0,0.0,100,0.00,,---,0.52,VWS V14.01,2013-08-19 11:49:00,
2013-08-19 07:50:00,71.8,71.8,30.06,ENE,61,0.0,0.0,100,0.00,,---,0.52,VWS V14.01,2013-08-19 11:50:00,
2013-08-19 07:51:00,71.8,71.8,30.06,ENE,59,0.0,0.0,100,0.00,,---,0.52,VWS V14.01,2013-08-19 11:51:00,
2013-08-19 07:52:00,71.8,71.8,30.06,ENE,59,0.0,0.0,100,0.00,,---,0.52,VWS V14.01,2013-08-19 11:52:00,
2013-08-19 07:53:00,71.8,71.8,30.06,ENE,59,0.0,3.0,100,0.00,,---,0.52,VWS V14.01,2013-08-19 11:53:00,
2013-08-19 07:54:00,71.8,71.8,30.06,ENE,59,3.0,3.0,100,0.00,,---,0.52,VWS V14.01,2013-08-19 11:54:00,
2013-08-19 07:55:00,71.8,71.8,30.06,ENE,59,0.0,3.0,100,0.00,,---,0.52,VWS V14.01,2013-08-19 11:55:00,
2013-08-19 07:56:00,71.8,71.8,30.06,ENE,61,0.0,3.0,100,0.00,,---,0.52,VWS V14.01,2013-08-19 11:56:00,
2013-08-19 07:57:00,71.8,71.8,30.06,ENE,61,0.0,3.0,100,0.00,,---,0.52,VWS V14.01,2013-08-19 11:57:00,
2013-08-19 07:58:00,71.8,71.8,30.06,ENE,61,0.0,3.0,100,0.00,,---,0.52,VWS V14.01,2013-08-19 11:58:00,
2013-08-19 07:59:00,71.8,71.8,30.06,ENE,61,0.0,3.0,100,0.00,,---,0.52,VWS V14.01,2013-08-19 11:59:00,
2013-08-19 08:00:00,71.8,71.8,30.05,ENE,61,0.0,3.0,100,0.00,,---,0.52,VWS V14.01,2013-08-19 12:00:00,
2013-08-19 08:01:00,71.8,71.8,30.05,ENE,61,0.0,1.0,100,0.00,,---,0.52,VWS V14.01,2013-08-19 12:01:00,
2013-08-19 08:02:00,71.8,71.8,30.05,ENE,61,0.0,1.0,100,0.00,,---,0.52,VWS V14.01,2013-08-19 12:02:00,
2013-08-19 08:03:00,71.8,71.8,30.05,ENE,61,0.0,1.0,100,0.00,,---,0.52,VWS V14.01,2013-08-19 12:03:00,
2013-08-19 08:04:00,71.8,71.8,30.05,ENE,61,0.0,1.0,100,0.00,,---,0.52,VWS V14.01,2013-08-19 12:04:00,
2013-08-19 08:05:00,71.8,71.8,30.05,ENE,61,0.0,1.0,100,0.00,,---,0.52,VWS V14.01,2013-08-19 12:05:00,
2013-08-19 08:06:00,71.8,71.8,30.05,ENE,61,0.0,1.0,100,0.00,,---,0.52,VWS V14.01,2013-08-19 12:06:00,
2013-08-19 08:07:00,71.8,71.8,30.05,ENE,61,0.0,1.0,100,0.00,,---,0.52,VWS V14.01,2013-08-19 12:07:00,
2013-08-19 08:08:00,71.8,71.8,30.05,ENE,61,0.0,1.0,100,0.00,,---,0.52,VWS V14.01,2013-08-19 12:08:00,
2013-08-19 08:09:00,71.8,71.8,30.05,ENE,61,0.0,1.0,100,0.00,,---,0.52,VWS V14.01,2013-08-19 12:09:00,
2013-08-19 08:10:00,71.8,71.8,30.05,ENE,61,0.0,1.0,100,0.00,,---,0.52,VWS V14.01,2013-08-19 12:10:00,
2013-08-19 08:11:00,71.8,71.8,30.05,ENE,61,0.0,0.0,100,0.00,,---,0.52,VWS V14.01,2013-08-19 12:11:00,
2013-08-19 08:12:00,71.8,71.8,30.05,ENE,61,0.0,0.0,100,0.00,,---,0.52,VWS V14.01,2013-08-19 12:12:00,
2013-08-19 08:13:00,71.8,71.8,30.05,ENE,61,0.0,0.0,100,0.00,,---,0.52,VWS V14.01,2013-08-19 12:13:00,
2013-08-19 08:14:00,71.8,71.8,30.05,ENE,61,0.0,0.0,100,0.00,,---,0.52,VWS V14.01,2013-08-19 12:14:00,
2013-08-19 08:15:00,71.8,71.8,30.06,ENE,61,0.0,0.0,100,0.00,,---,0.52,VWS V14.01,2013-08-19 12:15:00,
2013-08-19 08:16:00,71.8,71.8,30.06,ENE,61,0.0,0.0,100,0.00,,---,0.52,VWS V14.01,2013-08-19 12:16:00,
2013-08-19 08:17:00,71.8,71.8,30.06,ENE,61,0.0,0.0,100,0.00,,---,0.52,VWS V14.01,2013-08-19 12:17:00,
2013-08-19 08:18:00,71.8,71.8,30.06,ENE,61,0.0,0.0,100,0.00,,---,0.52,VWS V14.01,2013-08-19 12:18:00,
2013-08-19 08:19:00,71.8,71.8,30.06,ENE,61,0.0,0.0,100,0.00,,---,0.52,VWS V14.01,2013-08-19 12:19:00,
2013-08-19 08:20:00,71.8,71.8,30.06,ENE,61,0.0,0.0,100,0.00,,---,0.52,VWS V14.01,2013-08-19 12:20:00,
2013-08-19 08:21:00,71.8,71.8,30.06,ENE,61,0.0,0.0,100,0.00,,---,0.52,VWS V14.01,2013-08-19 12:21:00,
2013-08-19 08:22:00,71.8,71.8,30.06,ENE,61,0.0,0.0,100,0.00,,---,0.52,VWS V14.01,2013-08-19 12:22:00,
2013-08-19 08:23:00,72.0,72.0,30.06,ENE,61,0.0,0.0,100,0.00,,---,0.52,VWS V14.01,2013-08-19 12:23:00,
2013-08-19 08:24:00,72.0,72.0,30.06,ENE,61,0.0,0.0,100,0.00,,---,0.52,VWS V14.01,2013-08-19 12:24:00,
2013-08-19 08:25:00,72.0,72.0,30.06,ENE,61,0.0,0.0,100,0.00,,---,0.52,VWS V14.01,2013-08-19 12:25:00,
2013-08-19 08:26:00,71.8,71.8,30.06,ENE,61,0.0,0.0,100,0.00,,---,0.52,VWS V14.01,2013-08-19 12:26:00,
2013-08-19 08:27:00,71.8,71.8,30.06,ENE,61,0.0,0.0,100,0.00,,---,0.52,VWS V14.01,2013-08-19 12:27:00,
2013-08-19 08:28:00,71.8,71.8,30.06,ENE,61,0.0,0.0,100,0.00,,---,0.52,VWS V14.01,2013-08-19 12:28:00,
2013-08-19 08:29:00,71.8,71.8,30.06,ENE,61,0.0,0.0,100,0.00,,---,0.52,VWS V14.01,2013-08-19 12:29:00,
2013-08-19 08:30:00,71.8,71.8,30.06,ENE,61,0.0,0.0,100,0.00,,---,0.52,VWS V14.01,2013-08-19 12:30:00,
2013-08-19 09:09:00,71.8,71.8,30.07,NE,48,0.0,0.0,100,0.04,,---,0.56,VWS V14.01,2013-08-19 13:09:00,
2013-08-19 09:10:00,71.8,71.8,30.07,NE,48,0.0,0.0,100,0.04,,---,0.56,VWS V14.01,2013-08-19 13:10:00,
2013-08-19 09:11:00,71.8,71.8,30.07,NE,48,1.0,1.0,100,0.04,,---,0.56,VWS V14.01,2013-08-19 13:11:00,
2013-08-19 09:12:00,71.8,71.8,30.07,NE,48,0.0,1.0,100,0.04,,---,0.56,VWS V14.01,2013-08-19 13:12:00,
2013-08-19 09:13:00,71.8,71.8,30.07,NE,48,0.0,1.0,100,0.04,,---,0.56,VWS V14.01,2013-08-19 13:13:00,
2013-08-19 09:14:00,71.8,71.8,30.07,NE,48,0.0,1.0,100,0.07,,---,0.59,VWS V14.01,2013-08-19 13:14:00,
2013-08-19 09:15:00,71.8,71.8,30.08,NE,48,0.0,1.0,100,0.08,,---,0.60,VWS V14.01,2013-08-19 13:15:00,
2013-08-19 09:16:00,71.8,71.8,30.08,NE,48,0.0,1.0,100,0.10,,---,0.62,VWS V14.01,2013-08-19 13:16:00,
2013-08-19 09:17:00,71.8,71.8,30.08,NE,48,0.0,1.0,100,0.11,,---,0.63,VWS V14.01,2013-08-19 13:17:00,
2013-08-19 09:18:00,71.8,71.8,30.08,NE,48,0.0,1.0,100,0.12,,---,0.64,VWS V14.01,2013-08-19 13:18:00,
2013-08-19 09:19:00,71.8,71.8,30.08,NE,48,0.0,1.0,100,0.12,,---,0.64,VWS V14.01,2013-08-19 13:19:00,
2013-08-19 09:20:00,71.8,71.8,30.08,NE,48,0.0,1.0,100,0.14,,---,0.66,VWS V14.01,2013-08-19 13:20:00,
2013-08-19 09:21:00,71.8,71.8,30.08,NE,48,0.0,0.0,100,0.14,,---,0.66,VWS V14.01,2013-08-19 13:21:00,
2013-08-19 09:22:00,71.8,71.8,30.08,NE,48,0.0,0.0,100,0.15,,---,0.67,VWS V14.01,2013-08-19 13:22:00,
2013-08-19 09:23:00,71.8,71.8,30.08,NE,48,0.0,0.0,100,0.16,,---,0.68,VWS V14.01,2013-08-19 13:23:00,
2013-08-19 09:24:00,71.8,71.8,30.08,NE,48,0.0,0.0,100,0.17,,---,0.69,VWS V14.01,2013-08-19 13:24:00,
2013-08-19 09:25:00,71.8,71.8,30.08,NE,48,0.0,0.0,100,0.18,,---,0.70,VWS V14.01,2013-08-19 13:25:00,
2013-08-19 09:26:00,71.8,71.8,30.08,NE,48,0.0,0.0,100,0.18,,---,0.70,VWS V14.01,2013-08-19 13:26:00,
2013-08-19 09:27:00,71.8,71.8,30.08,NE,48,0.0,0.0,100,0.19,,---,0.71,VWS V14.01,2013-08-19 13:27:00,
2013-08-19 09:28:00,71.8,71.8,30.08,NE,48,0.0,0.0,100,0.20,,---,0.72,VWS V14.01,2013-08-19 13:28:00,
2013-08-19 09:29:00,71.8,71.8,30.08,NE,48,0.0,0.0,100,0.22,,---,0.74,VWS V14.01,2013-08-19 13:29:00,
2013-08-19 09:30:00,71.8,71.8,30.09,NE,48,0.0,0.0,100,0.23,,---,0.75,VWS V14.01,2013-08-19 13:30:00,
2013-08-19 11:48:00,71.1,71.1,30.08,ENE,75,0.0,0.0,100,1.15,,---,1.67,VWS V14.01,2013-08-19 15:48:00,
2013-08-19 11:49:00,71.1,71.1,30.08,ENE,75,0.0,0.0,100,1.15,,---,1.67,VWS V14.01,2013-08-19 15:49:00,
2013-08-19 11:50:00,71.1,71.1,30.08,ENE,73,0.0,0.0,100,1.15,,---,1.67,VWS V14.01,2013-08-19 15:50:00,
2013-08-19 11:51:00,71.1,71.1,30.08,ENE,58,0.0,6.0,100,0.00,,---,1.67,VWS V14.01,2013-08-19 15:51:00,
2013-08-19 11:52:00,71.1,71.1,30.08,East,100,1.0,6.0,100,0.00,,---,1.67,VWS V14.01,2013-08-19 15:52:00,
2013-08-19 11:53:00,71.1,71.1,30.08,ENE,64,0.0,6.0,100,0.00,,---,1.67,VWS V14.01,2013-08-19 15:53:00,
2013-08-19 11:54:00,71.1,71.1,30.08,NE,48,0.0,6.0,100,0.00,,---,1.67,VWS V14.01,2013-08-19 15:54:00,
2013-08-19 11:55:00,71.1,71.1,30.08,NE,48,0.0,6.0,100,0.00,,---,1.67,VWS V14.01,2013-08-19 15:55:00,
2013-08-19 11:56:00,71.1,71.1,30.08,NE,54,2.0,6.0,100,0.00,,---,1.67,VWS V14.01,2013-08-19 15:56:00,
2013-08-19 11:57:00,71.1,71.1,30.08,NE,47,0.0,6.0,100,0.00,,---,1.67,VWS V14.01,2013-08-19 15:57:00,
2013-08-19 11:58:00,71.1,71.1,30.08,NE,48,3.0,6.0,100,0.00,,---,1.67,VWS V14.01,2013-08-19 15:58:00,
2013-08-19 11:59:00,71.1,71.1,30.08,NE,54,0.0,6.0,100,0.00,,---,1.67,VWS V14.01,2013-08-19 15:59:00,
2013-08-19 12:00:00,71.1,71.1,30.08,NE,54,0.0,6.0,100,0.00,,---,1.67,VWS V14.01,2013-08-19 16:00:00,
2013-08-19 12:01:00,71.1,71.1,30.08,NNE,27,0.0,1.0,100,0.00,,---,1.67,VWS V14.01,2013-08-19 16:01:00,
2013-08-19 12:02:00,71.1,71.1,30.08,ESE,106,1.0,5.0,100,0.00,,---,1.67,VWS V14.01,2013-08-19 16:02:00,
2013-08-19 12:03:00,71.1,71.1,30.08,NE,51,0.0,5.0,100,0.00,,---,1.67,VWS V14.01,2013-08-19 16:03:00,
2013-08-19 12:04:00,71.1,71.1,30.08,NE,51,0.0,5.0,100,0.01,,---,1.68,VWS V14.01,2013-08-19 16:04:00,
2013-08-19 12:05:00,71.1,71.1,30.08,NE,51,0.0,5.0,100,0.01,,---,1.68,VWS V14.01,2013-08-19 16:05:00,
2013-08-19 12:06:00,71.1,71.1,30.08,NE,42,3.0,5.0,100,0.01,,---,1.68,VWS V14.01,2013-08-19 16:06:00,
2013-08-19 12:07:00,71.1,71.1,30.08,NE,51,0.0,5.0,100,0.01,,---,1.68,VWS V14.01,2013-08-19 16:07:00,
2013-08-19 12:08:00,71.3,71.3,30.08,NE,51,0.0,5.0,100,0.01,,---,1.68,VWS V14.01,2013-08-19 16:08:00,
2013-08-19 12:09:00,71.3,71.3,30.08,NE,51,1.0,5.0,100,0.01,,---,1.68,VWS V14.01,2013-08-19 16:09:00,
2013-08-19 12:10:00,71.3,71.3,30.08,NE,51,0.0,5.0,100,0.01,,---,1.68,VWS V14.01,2013-08-19 16:10:00,
2013-08-19 12:11:00,71.3,71.3,30.08,NE,51,0.0,0.0,100,0.01,,---,1.68,VWS V14.01,2013-08-19 16:11:00,
2013-08-19 12:12:00,71.3,71.3,30.08,SW,223,0.0,2.0,100,0.01,,---,1.68,VWS V14.01,2013-08-19 16:12:00,
2013-08-19 12:13:00,71.3,71.3,30.08,SE,131,0.0,2.0,100,0.01,,---,1.68,VWS V14.01,2013-08-19 16:13:00,
2013-08-19 12:14:00,71.5,71.5,30.08,SE,131,0.0,2.0,100,0.01,,---,1.68,VWS V14.01,2013-08-19 16:14:00,
2013-08-19 12:15:00,71.5,71.5,30.08,SE,131,0.0,2.0,100,0.01,,---,1.68,VWS V14.01,2013-08-19 16:15:00,
2013-08-19 12:16:00,71.5,71.5,30.08,SE,131,0.0,2.0,100,0.01,,---,1.68,VWS V14.01,2013-08-19 16:16:00,
2013-08-19 12:17:00,71.5,71.5,30.08,SE,131,0.0,2.0,100,0.01,,---,1.68,VWS V14.01,2013-08-19 16:17:00,
2013-08-19 12:18:00,71.5,71.5,30.08,SE,131,0.0,2.0,100,0.01,,---,1.68,VWS V14.01,2013-08-19 16:18:00,
2013-08-19 12:19:00,71.5,71.5,30.08,SE,131,0.0,2.0,100,0.01,,---,1.68,VWS V14.01,2013-08-19 16:19:00,
2013-08-19 12:20:00,71.5,71.5,30.08,SE,131,0.0,2.0,100,0.01,,---,1.68,VWS V14.01,2013-08-19 16:20:00,
2013-08-19 12:21:00,71.5,71.5,30.08,NNE,32,0.0,2.0,100,0.01,,---,1.68,VWS V14.01,2013-08-19 16:21:00,
2013-08-19 12:22:00,71.6,71.6,30.08,ESE,121,0.0,2.0,100,0.01,,---,1.68,VWS V14.01,2013-08-19 16:22:00,
2013-08-19 12:23:00,71.6,71.6,30.08,ESE,121,0.0,2.0,100,0.01,,---,1.68,VWS V14.01,2013-08-19 16:23:00,
2013-08-19 12:24:00,71.6,71.6,30.08,ESE,121,0.0,2.0,100,0.01,,---,1.68,VWS V14.01,2013-08-19 16:24:00,
2013-08-19 12:25:00,71.6,71.6,30.08,ESE,121,0.0,2.0,100,0.01,,---,1.68,VWS V14.01,2013-08-19 16:25:00,
2013-08-19 12:26:00,71.6,71.6,30.08,ENE,72,0.0,2.0,100,0.01,,---,1.68,VWS V14.01,2013-08-19 16:26:00,
2013-08-19 12:27:00,71.6,71.6,30.08,NE,41,0.0,2.0,100,0.01,,---,1.68,VWS V14.01,2013-08-19 16:27:00,
2013-08-19 12:28:00,71.6,71.6,30.08,NE,41,0.0,2.0,100,0.01,,---,1.68,VWS V14.01,2013-08-19 16:28:00,
2013-08-19 12:29:00,71.6,71.6,30.08,NE,41,0.0,2.0,100,0.01,,---,1.68,VWS V14.01,2013-08-19 16:29:00,
2013-08-19 12:30:00,71.6,71.6,30.08,NE,41,0.0,2.0,100,0.01,,---,1.68,VWS V14.01,2013-08-19 16:30:00,
2013-08-19 12:31:00,71.6,71.6,30.08,NE,41,0.0,0.0,100,0.02,,---,1.69,VWS V14.01,2013-08-19 16:31:00,
2013-08-19 12:32:00,71.6,71.6,30.08,NE,41,0.0,0.0,100,0.02,,---,1.69,VWS V14.01,2013-08-19 16:32:00,
2013-08-19 12:33:00,71.8,71.8,30.08,NE,42,0.0,0.0,100,0.02,,---,1.69,VWS V14.01,2013-08-19 16:33:00,
2013-08-19 12:34:00,71.8,71.8,30.08,ENE,64,3.0,5.0,100,0.02,,---,1.69,VWS V14.01,2013-08-19 16:34:00,
2013-08-19 12:35:00,71.8,71.8,30.08,ENE,65,0.0,5.0,100,0.02,,---,1.69,VWS V14.01,2013-08-19 16:35:00,
2013-08-19 12:36:00,71.8,71.8,30.08,ENE,61,0.0,5.0,100,0.02,,---,1.69,VWS V14.01,2013-08-19 16:36:00,
2013-08-19 12:37:00,71.8,71.8,30.08,NNE,23,2.0,5.0,100,0.02,,---,1.69,VWS V14.01,2013-08-19 16:37:00,
2013-08-19 12:38:00,71.8,71.8,30.08,NE,42,1.0,5.0,100,0.02,,---,1.69,VWS V14.01,2013-08-19 16:38:00,
2013-08-19 12:39:00,71.8,71.8,30.08,NE,42,0.0,5.0,100,0.02,,---,1.69,VWS V14.01,2013-08-19 16:39:00,
2013-08-19 12:40:00,71.8,71.8,30.08,NE,41,0.0,5.0,100,0.02,,---,1.69,VWS V14.01,2013-08-19 16:40:00,
2013-08-19 12:41:00,71.8,71.8,30.08,NE,41,0.0,1.0,100,0.02,,---,1.69,VWS V14.01,2013-08-19 16:41:00,
2013-08-19 12:50:00,71.8,71.8,30.07,NE,45,0.0,5.0,100,0.08,,---,1.75,VWS V14.01,2013-08-19 16:50:00,
2013-08-19 13:00:00,72.0,72.0,30.07,ENE,68,0.0,5.0,100,0.09,,---,1.76,VWS V14.01,2013-08-19 17:00:00,
2013-08-19 13:10:00,72.1,72.1,30.07,NE,45,0.0,4.0,100,0.10,,---,1.77,VWS V14.01,2013-08-19 17:10:00,
2013-08-19 13:20:00,72.5,72.5,30.07,NE,45,0.0,3.0,100,0.09,,---,1.77,VWS V14.01,2013-08-19 17:20:00,
2013-08-19 13:30:00,72.5,72.5,30.06,NE,45,0.0,1.0,100,0.09,,---,1.77,VWS V14.01,2013-08-19 17:30:00,
2013-08-19 13:40:00,72.7,72.7,30.06,NE,45,1.0,5.0,100,0.09,,---,1.77,VWS V14.01,2013-08-19 17:40:00,
2013-08-19 13:50:00,72.8,72.8,30.06,NE,45,1.0,6.0,100,0.08,,---,1.77,VWS V14.01,2013-08-19 17:50:00,
2013-08-19 14:00:00,72.8,72.8,30.06,NE,45,0.0,5.0,100,0.02,,---,1.77,VWS V14.01,2013-08-19 18:00:00,
2013-08-19 14:10:00,73.0,73.0,30.06,NE,45,1.0,6.0,100,0.01,,---,1.77,VWS V14.01,2013-08-19 18:10:00,
2013-08-19 14:20:00,73.5,73.5,30.06,NE,45,1.0,6.0,100,0.00,,---,1.77,VWS V14.01,2013-08-19 18:20:00,
2013-08-19 14:30:00,73.7,73.7,30.06,NNE,22,0.0,3.0,100,0.00,,---,1.77,VWS V14.01,2013-08-19 18:30:00,
2013-08-19 14:40:00,73.7,73.7,30.06,NE,45,0.0,2.0,100,0.00,,---,1.77,VWS V14.01,2013-08-19 18:40:00,
2013-08-19 14:50:00,74.0,74.0,30.05,NE,45,1.0,6.0,100,0.00,,---,1.77,VWS V14.01,2013-08-19 18:50:00,
2013-08-19 15:00:00,74.0,74.0,30.04,NE,45,1.0,6.0,100,0.00,,---,1.77,VWS V14.01,2013-08-19 19:00:00,
2013-08-19 15:10:00,73.7,73.7,30.04,NE,45,2.0,6.0,100,0.00,,---,1.77,VWS V14.01,2013-08-19 19:10:00,
2013-08-19 15:24:00,73.3,73.3,30.04,NE,41,0.0,1.0,100,0.06,,---,1.73,VWS V14.01,2013-08-19 19:24:00,
2013-08-19 15:25:00,73.3,73.3,30.04,NE,41,0.0,1.0,100,0.06,,---,1.73,VWS V14.01,2013-08-19 19:25:00,
2013-08-19 15:26:00,73.3,73.3,30.04,NE,41,0.0,1.0,100,0.06,,---,1.73,VWS V14.01,2013-08-19 19:26:00,
2013-08-19 15:27:00,73.5,73.5,30.04,NE,41,0.0,2.0,100,0.00,,---,1.73,VWS V14.01,2013-08-19 19:27:00,
2013-08-19 15:28:00,73.5,73.5,30.04,NE,41,0.0,2.0,100,0.00,,---,1.73,VWS V14.01,2013-08-19 19:28:00,
2013-08-19 15:29:00,73.5,73.5,30.04,SE,136,1.0,2.0,100,0.00,,---,1.73,VWS V14.01,2013-08-19 19:29:00,
2013-08-19 15:30:00,73.5,73.5,30.04,SE,133,0.0,2.0,100,0.00,,---,1.73,VWS V14.01,2013-08-19 19:30:00,
2013-08-19 15:31:00,73.5,73.5,30.04,SE,131,0.0,0.0,100,0.00,,---,1.73,VWS V14.01,2013-08-19 19:31:00,
2013-08-19 15:32:00,73.5,73.5,30.04,NE,44,2.0,2.0,100,0.00,,---,1.73,VWS V14.01,2013-08-19 19:32:00,
2013-08-19 15:33:00,73.5,73.5,30.04,East,92,0.0,3.0,100,0.00,,---,1.73,VWS V14.01,2013-08-19 19:33:00,
2013-08-19 15:34:00,73.5,73.5,30.04,East,92,0.0,3.0,100,0.00,,---,1.73,VWS V14.01,2013-08-19 19:34:00,
2013-08-19 15:35:00,73.5,73.5,30.04,ENE,68,0.0,3.0,100,0.00,,---,1.73,VWS V14.01,2013-08-19 19:35:00,
2013-08-19 15:36:00,73.5,73.5,30.04,ENE,68,0.0,3.0,100,0.00,,---,1.74,VWS V14.01,2013-08-19 19:36:00,
2013-08-19 15:37:00,73.5,73.5,30.04,ENE,68,0.0,3.0,100,0.00,,---,1.74,VWS V14.01,2013-08-19 19:37:00,
2013-08-19 15:38:00,73.5,73.5,30.04,ENE,68,0.0,3.0,100,0.00,,---,1.74,VWS V14.01,2013-08-19 19:38:00,
2013-08-19 15:39:00,73.5,73.5,30.04,NE,48,0.0,3.0,100,0.00,,---,1.74,VWS V14.01,2013-08-19 19:39:00,
2013-08-19 15:40:00,73.5,73.5,30.04,NE,47,0.0,3.0,100,0.00,,---,1.74,VWS V14.01,2013-08-19 19:40:00,
2013-08-19 15:41:00,73.5,73.5,30.04,NE,47,0.0,0.0,100,0.00,,---,1.74,VWS V14.01,2013-08-19 19:41:00,
2013-08-19 15:42:00,73.5,73.5,30.04,NE,47,0.0,0.0,100,0.00,,---,1.74,VWS V14.01,2013-08-19 19:42:00,
2013-08-19 15:43:00,73.3,73.3,30.04,NE,49,5.0,5.0,100,0.00,,---,1.74,VWS V14.01,2013-08-19 19:43:00,
2013-08-19 15:44:00,73.3,73.3,30.04,NE,45,0.0,6.0,100,0.00,,---,1.74,VWS V14.01,2013-08-19 19:44:00,
2013-08-19 15:45:00,73.3,73.3,30.04,NE,45,0.0,6.0,100,0.00,,---,1.74,VWS V14.01,2013-08-19 19:45:00,
2013-08-19 15:46:00,73.3,73.3,30.04,NE,45,0.0,6.0,100,0.00,,---,1.74,VWS V14.01,2013-08-19 19:46:00,
2013-08-19 15:47:00,73.3,73.3,30.04,NE,45,0.0,6.0,100,0.00,,---,1.74,VWS V14.01,2013-08-19 19:47:00,
2013-08-19 15:48:00,73.3,73.3,30.04,NE,45,0.0,6.0,100,0.00,,---,1.74,VWS V14.01,2013-08-19 19:48:00,
2013-08-19 15:49:00,73.3,73.3,30.04,NE,45,0.0,0.0,100,0.00,,---,1.74,VWS V14.01,2013-08-19 19:49:00,
2013-08-19 15:50:00,73.3,73.3,30.04,NE,47,2.0,2.0,100,0.00,,---,1.74,VWS V14.01,2013-08-19 19:50:00,
2013-08-19 15:51:00,73.3,73.3,30.04,NE,47,0.0,2.0,100,0.00,,---,1.74,VWS V14.01,2013-08-19 19:51:00,
2013-08-19 15:52:00,73.3,73.3,30.04,NE,47,0.0,2.0,100,0.00,,---,1.74,VWS V14.01,2013-08-19 19:52:00,
2013-08-19 15:53:00,73.3,73.3,30.04,NE,47,0.0,2.0,100,0.00,,---,1.74,VWS V14.01,2013-08-19 19:53:00,
2013-08-19 15:54:00,73.3,73.3,30.04,ENE,61,4.0,6.0,100,0.00,,---,1.75,VWS V14.01,2013-08-19 19:54:00,
2013-08-19 15:55:00,73.3,73.3,30.04,ENE,61,0.0,6.0,100,0.00,,---,1.75,VWS V14.01,2013-08-19 19:55:00,
2013-08-19 15:56:00,73.3,73.3,30.04,ENE,61,0.0,6.0,100,0.00,,---,1.75,VWS V14.01,2013-08-19 19:56:00,
2013-08-19 15:57:00,73.3,73.3,30.04,ENE,61,0.0,6.0,100,0.00,,---,1.75,VWS V14.01,2013-08-19 19:57:00,
2013-08-19 15:58:00,73.3,73.3,30.04,ENE,61,0.0,6.0,100,0.00,,---,1.75,VWS V14.01,2013-08-19 19:58:00,
2013-08-19 15:59:00,73.3,73.3,30.04,ENE,61,0.0,6.0,100,0.00,,---,1.75,VWS V14.01,2013-08-19 19:59:00,
2013-08-19 16:00:00,73.3,73.3,30.04,ENE,61,0.0,6.0,100,0.00,,---,1.75,VWS V14.01,2013-08-19 20:00:00,
2013-08-19 16:01:00,73.3,73.3,30.04,ENE,61,0.0,0.0,100,0.00,,---,1.75,VWS V14.01,2013-08-19 20:01:00,
2013-08-19 16:02:00,73.3,73.3,30.04,ENE,61,0.0,0.0,100,0.00,,---,1.75,VWS V14.01,2013-08-19 20:02:00,
2013-08-19 16:03:00,73.3,73.3,30.04,ENE,61,0.0,0.0,100,0.00,,---,1.75,VWS V14.01,2013-08-19 20:03:00,
2013-08-19 16:04:00,73.3,73.3,30.04,ENE,61,0.0,0.0,100,0.00,,---,1.75,VWS V14.01,2013-08-19 20:04:00,
2013-08-19 16:05:00,73.3,73.3,30.04,ENE,61,0.0,0.0,100,0.00,,---,1.76,VWS V14.01,2013-08-19 20:05:00,
2013-08-19 16:06:00,73.3,73.3,30.04,ENE,61,0.0,0.0,100,0.00,,---,1.76,VWS V14.01,2013-08-19 20:06:00,
2013-08-19 16:07:00,73.3,73.3,30.04,ENE,61,0.0,0.0,100,0.00,,---,1.76,VWS V14.01,2013-08-19 20:07:00,
2013-08-19 16:08:00,73.3,73.3,30.04,ENE,61,0.0,0.0,100,0.00,,---,1.76,VWS V14.01,2013-08-19 20:08:00,
2013-08-19 16:09:00,73.3,73.3,30.04,ENE,61,0.0,0.0,100,0.00,,---,1.76,VWS V14.01,2013-08-19 20:09:00,
2013-08-19 16:10:00,73.3,73.3,30.04,ENE,61,0.0,0.0,100,0.00,,---,1.76,VWS V14.01,2013-08-19 20:10:00,
2013-08-19 18:38:00,73.3,73.3,30.04,ENE,61,0.0,0.0,100,0.00,,---,1.76,VWS V14.01,2013-08-19 22:38:00,
2013-08-19 18:39:00,73.7,73.7,30.01,ENE,64,0.0,0.0,100,0.00,,---,1.76,VWS V14.01,2013-08-19 22:39:00,
2013-08-19 18:40:00,73.7,73.7,30.01,ENE,64,0.0,0.0,100,0.00,,---,1.76,VWS V14.01,2013-08-19 22:40:00,
2013-08-19 18:41:00,73.5,73.5,30.01,ENE,64,0.0,0.0,100,0.00,,---,1.76,VWS V14.01,2013-08-19 22:41:00,
2013-08-19 18:42:00,73.5,73.5,30.01,ENE,64,0.0,0.0,100,0.00,,---,1.76,VWS V14.01,2013-08-19 22:42:00,
2013-08-19 18:43:00,73.5,73.5,30.01,ENE,64,0.0,0.0,100,0.00,,---,1.76,VWS V14.01,2013-08-19 22:43:00,
2013-08-19 18:44:00,73.5,73.5,30.01,ENE,64,0.0,0.0,100,0.00,,---,1.76,VWS V14.01,2013-08-19 22:44:00,
2013-08-19 18:45:00,73.5,73.5,30.01,ENE,64,0.0,0.0,100,0.00,,---,1.76,VWS V14.01,2013-08-19 22:45:00,
2013-08-19 18:46:00,73.5,73.5,30.01,ENE,64,0.0,0.0,100,0.00,,---,1.76,VWS V14.01,2013-08-19 22:46:00,
2013-08-19 18:47:00,73.5,73.5,30.01,ENE,64,0.0,0.0,100,0.00,,---,1.76,VWS V14.01,2013-08-19 22:47:00,
2013-08-19 18:48:00,73.5,73.5,30.01,ENE,64,0.0,0.0,100,0.00,,---,1.76,VWS V14.01,2013-08-19 22:48:00,
2013-08-19 18:49:00,73.5,73.5,30.01,ENE,64,0.0,0.0,100,0.00,,---,1.76,VWS V14.01,2013-08-19 22:49:00,
2013-08-19 18:50:00,73.5,73.5,30.01,ENE,64,0.0,0.0,100,0.00,,---,1.76,VWS V14.01,2013-08-19 22:50:00,
2013-08-19 18:51:00,73.3,73.3,30.01,NE,40,0.0,1.0,100,0.00,,---,1.76,VWS V14.01,2013-08-19 22:51:00,
2013-08-19 18:52:00,73.3,73.3,30.01,NE,40,0.0,1.0,100,0.00,,---,1.76,VWS V14.01,2013-08-19 22:52:00,
2013-08-19 18:53:00,73.3,73.3,30.01,NE,40,0.0,1.0,100,0.00,,---,1.76,VWS V14.01,2013-08-19 22:53:00,
2013-08-19 18:54:00,73.3,73.3,30.01,NE,40,0.0,1.0,100,0.00,,---,1.76,VWS V14.01,2013-08-19 22:54:00,
2013-08-19 18:55:00,73.3,73.3,30.01,NE,40,0.0,1.0,100,0.00,,---,1.76,VWS V14.01,2013-08-19 22:55:00,
2013-08-19 18:56:00,73.3,73.3,30.01,NE,56,2.0,4.0,100,0.00,,---,1.76,VWS V14.01,2013-08-19 22:56:00,
2013-08-19 18:57:00,73.2,73.2,30.01,NE,56,0.0,4.0,100,0.00,,---,1.76,VWS V14.01,2013-08-19 22:57:00,
2013-08-19 18:58:00,73.2,73.2,30.01,NE,48,1.0,4.0,100,0.00,,---,1.76,VWS V14.01,2013-08-19 22:58:00,
2013-08-19 18:59:00,73.2,73.2,30.01,NE,54,0.0,5.0,100,0.00,,---,1.76,VWS V14.01,2013-08-19 22:59:00,
2013-08-19 19:00:00,73.2,73.2,30.01,NE,41,1.0,5.0,100,0.00,,---,1.76,VWS V14.01,2013-08-19 23:00:00,
2013-08-19 19:01:00,73.2,73.2,30.01,NE,41,0.0,1.0,100,0.00,,---,1.76,VWS V14.01,2013-08-19 23:01:00,
2013-08-19 19:02:00,73.2,73.2,30.01,NE,41,0.0,1.0,100,0.00,,---,1.76,VWS V14.01,2013-08-19 23:02:00,
2013-08-19 19:03:00,73.0,73.0,30.01,ENE,62,0.0,1.0,100,0.00,,---,1.76,VWS V14.01,2013-08-19 23:03:00,
2013-08-19 19:04:00,73.0,73.0,30.01,NE,40,0.0,1.0,100,0.00,,---,1.76,VWS V14.01,2013-08-19 23:04:00,
2013-08-19 19:05:00,73.0,73.0,30.01,NE,41,0.0,1.0,100,0.00,,---,1.76,VWS V14.01,2013-08-19 23:05:00,
2013-08-19 19:06:00,73.0,73.0,30.01,NE,41,0.0,1.0,100,0.00,,---,1.76,VWS V14.01,2013-08-19 23:06:00,
2013-08-19 19:07:00,73.0,73.0,30.01,NE,49,3.0,3.0,100,0.00,,---,1.76,VWS V14.01,2013-08-19 23:07:00,
2013-08-19 19:08:00,73.0,73.0,30.01,NE,49,0.0,3.0,100,0.00,,---,1.76,VWS V14.01,2013-08-19 23:08:00,
2013-08-19 19:09:00,73.0,73.0,30.01,NE,49,0.0,3.0,100,0.00,,---,1.76,VWS V14.01,2013-08-19 23:09:00,
2013-08-19 19:10:00,72.8,72.8,30.01,NE,49,0.0,3.0,100,0.00,,---,1.76,VWS V14.01,2013-08-19 23:10:00,
2013-08-19 19:11:00,72.8,72.8,30.01,NE,49,0.0,0.0,100,0.00,,---,1.76,VWS V14.01,2013-08-19 23:11:00,
2013-08-19 19:12:00,72.8,72.8,30.01,NE,49,0.0,0.0,100,0.00,,---,1.76,VWS V14.01,2013-08-19 23:12:00,
2013-08-19 19:13:00,72.8,72.8,30.01,NE,49,0.0,0.0,100,0.00,,---,1.76,VWS V14.01,2013-08-19 23:13:00,
2013-08-19 19:14:00,72.8,72.8,30.01,NE,49,0.0,0.0,100,0.00,,---,1.76,VWS V14.01,2013-08-19 23:14:00,
2013-08-19 19:15:00,72.8,72.8,30.02,NE,49,0.0,3.0,100,0.00,,---,1.76,VWS V14.01,2013-08-19 23:15:00,
2013-08-19 19:16:00,72.8,72.8,30.02,NE,49,0.0,3.0,100,0.00,,---,1.76,VWS V14.01,2013-08-19 23:16:00,
2013-08-19 19:17:00,72.8,72.8,30.02,NE,49,0.0,3.0,100,0.00,,---,1.76,VWS V14.01,2013-08-19 23:17:00,
2013-08-19 19:18:00,72.8,72.8,30.02,NE,49,0.0,3.0,100,0.00,,---,1.76,VWS V14.01,2013-08-19 23:18:00,
2013-08-19 19:19:00,72.7,72.7,30.02,NE,49,0.0,3.0,100,0.00,,---,1.76,VWS V14.01,2013-08-19 23:19:00,
2013-08-19 19:20:00,72.7,72.7,30.02,NE,49,0.0,3.0,100,0.00,,---,1.76,VWS V14.01,2013-08-19 23:20:00,
2013-08-19 19:21:00,72.7,72.7,30.02,NE,49,0.0,0.0,100,0.00,,---,1.76,VWS V14.01,2013-08-19 23:21:00,
2013-08-19 19:22:00,72.7,72.7,30.02,NE,49,0.0,0.0,100,0.00,,---,1.76,VWS V14.01,2013-08-19 23:22:00,
2013-08-19 19:23:00,72.7,72.7,30.02,NE,49,0.0,0.0,100,0.00,,---,1.76,VWS V14.01,2013-08-19 23:23:00,
2013-08-19 19:24:00,72.7,72.7,30.02,NE,49,0.0,0.0,100,0.00,,---,1.76,VWS V14.01,2013-08-19 23:24:00,
2013-08-19 19:25:00,72.7,72.7,30.02,NE,49,0.0,0.0,100,0.00,,---,1.76,VWS V14.01,2013-08-19 23:25:00,
2013-08-19 19:26:00,72.7,72.7,30.02,NE,49,0.0,0.0,100,0.00,,---,1.76,VWS V14.01,2013-08-19 23:26:00,
2013-08-19 19:27:00,72.7,72.7,30.02,NE,49,0.0,0.0,100,0.00,,---,1.76,VWS V14.01,2013-08-19 23:27:00,
2013-08-19 19:28:00,72.7,72.7,30.02,NE,49,0.0,0.0,100,0.00,,---,1.76,VWS V14.01,2013-08-19 23:28:00,
2013-08-19 19:29:00,72.7,72.7,30.02,NE,49,0.0,0.0,100,0.00,,---,1.76,VWS V14.01,2013-08-19 23:29:00,
2013-08-19 19:30:00,72.7,72.7,30.02,NE,49,0.0,0.0,100,0.00,,---,1.76,VWS V14.01,2013-08-19 23:30:00,
2013-08-19 19:31:00,72.7,72.7,30.02,NE,49,0.0,0.0,100,0.00,,---,1.76,VWS V14.01,2013-08-19 23:31:00,
2013-08-19 19:32:00,72.7,72.7,30.02,NE,49,0.0,0.0,100,0.00,,---,1.76,VWS V14.01,2013-08-19 23:32:00,
2013-08-19 19:33:00,72.7,72.7,30.02,NE,49,0.0,0.0,100,0.00,,---,1.76,VWS V14.01,2013-08-19 23:33:00,
2013-08-19 19:34:00,72.7,72.7,30.02,NE,49,0.0,0.0,100,0.00,,---,1.76,VWS V14.01,2013-08-19 23:34:00,
2013-08-19 19:35:00,72.5,72.5,30.02,NE,49,0.0,0.0,100,0.00,,---,1.76,VWS V14.01,2013-08-19 23:35:00,
2013-08-19 19:36:00,72.5,72.5,30.02,NE,49,0.0,0.0,100,0.00,,---,1.76,VWS V14.01,2013-08-19 23:36:00,
2013-08-19 19:37:00,72.5,72.5,30.02,NE,49,0.0,0.0,100,0.00,,---,1.76,VWS V14.01,2013-08-19 23:37:00,
2013-08-19 19:38:00,72.5,72.5,30.02,NE,49,0.0,0.0,100,0.00,,---,1.76,VWS V14.01,2013-08-19 23:38:00,
2013-08-19 19:39:00,72.5,72.5,30.02,NE,49,0.0,0.0,100,0.00,,---,1.76,VWS V14.01,2013-08-19 23:39:00,
2013-08-19 19:40:00,72.5,72.5,30.02,NE,49,0.0,0.0,100,0.00,,---,1.76,VWS V14.01,2013-08-19 23:40:00,
2013-08-19 19:41:00,72.5,72.5,30.02,NE,49,0.0,0.0,100,0.00,,---,1.76,VWS V14.01,2013-08-19 23:41:00,
2013-08-19 19:42:00,72.5,72.5,30.02,NE,49,0.0,0.0,100,0.00,,---,1.76,VWS V14.01,2013-08-19 23:42:00,
2013-08-19 19:43:00,72.5,72.5,30.02,NE,49,0.0,0.0,100,0.00,,---,1.76,VWS V14.01,2013-08-19 23:43:00,
2013-08-19 19:44:00,72.5,72.5,30.02,NE,49,0.0,0.0,100,0.00,,---,1.76,VWS V14.01,2013-08-19 23:44:00,
2013-08-19 19:45:00,72.5,72.5,30.02,NE,49,0.0,0.0,100,0.00,,---,1.76,VWS V14.01,2013-08-19 23:45:00,
2013-08-19 19:46:00,72.5,72.5,30.02,NE,49,0.0,0.0,100,0.00,,---,1.76,VWS V14.01,2013-08-19 23:46:00,
2013-08-19 19:47:00,72.5,72.5,30.02,NE,49,0.0,0.0,100,0.00,,---,1.76,VWS V14.01,2013-08-19 23:47:00,
2013-08-19 19:48:00,72.5,72.5,30.02,NE,49,0.0,0.0,100,0.00,,---,1.76,VWS V14.01,2013-08-19 23:48:00,
2013-08-19 19:49:00,72.5,72.5,30.02,NE,49,0.0,0.0,100,0.00,,---,1.76,VWS V14.01,2013-08-19 23:49:00,
2013-08-19 19:50:00,72.3,72.3,30.02,NE,49,0.0,0.0,100,0.00,,---,1.76,VWS V14.01,2013-08-19 23:50:00,
2013-08-19 19:51:00,72.3,72.3,30.02,NE,49,0.0,0.0,100,0.00,,---,1.76,VWS V14.01,2013-08-19 23:51:00,
2013-08-19 19:52:00,72.3,72.3,30.02,NE,49,0.0,0.0,100,0.00,,---,1.76,VWS V14.01,2013-08-19 23:52:00,
2013-08-19 19:53:00,72.3,72.3,30.02,NE,49,0.0,0.0,100,0.00,,---,1.76,VWS V14.01,2013-08-19 23:53:00,
2013-08-19 19:54:00,72.3,72.3,30.02,NE,49,0.0,0.0,100,0.00,,---,1.76,VWS V14.01,2013-08-19 23:54:00,
2013-08-19 19:55:00,72.3,72.3,30.02,NE,49,0.0,0.0,100,0.00,,---,1.76,VWS V14.01,2013-08-19 23:55:00,
2013-08-19 19:56:00,72.3,72.3,30.02,NE,49,0.0,0.0,100,0.00,,---,1.76,VWS V14.01,2013-08-19 23:56:00,
2013-08-19 19:57:00,72.3,72.3,30.02,NE,49,0.0,0.0,100,0.00,,---,1.76,VWS V14.01,2013-08-19 23:57:00,
2013-08-19 19:58:00,72.3,72.3,30.02,NE,49,0.0,0.0,100,0.00,,---,1.76,VWS V14.01,2013-08-19 23:58:00,
2013-08-19 19:59:00,72.3,72.3,30.02,NE,49,0.0,0.0,100,0.00,,---,1.76,VWS V14.01,2013-08-19 23:59:00,
2013-08-19 20:00:00,72.3,72.3,30.03,NE,49,0.0,0.0,100,0.00,,---,1.76,VWS V14.01,2013-08-20 00:00:00,
2013-08-19 20:01:00,72.3,72.3,30.03,NE,49,0.0,0.0,100,0.00,,---,1.76,VWS V14.01,2013-08-20 00:01:00,
2013-08-19 20:02:00,72.3,72.3,30.03,NE,49,0.0,0.0,100,0.00,,---,1.76,VWS V14.01,2013-08-20 00:02:00,
2013-08-19 20:03:00,72.3,72.3,30.03,NE,49,0.0,0.0,100,0.00,,---,1.76,VWS V14.01,2013-08-20 00:03:00,
2013-08-19 20:04:00,72.3,72.3,30.03,NE,49,0.0,0.0,100,0.00,,---,1.76,VWS V14.01,2013-08-20 00:04:00,
2013-08-19 20:05:00,72.3,72.3,30.03,NE,49,0.0,0.0,100,0.00,,---,1.76,VWS V14.01,2013-08-20 00:05:00,
2013-08-19 20:06:00,72.3,72.3,30.03,NE,49,0.0,0.0,100,0.00,,---,1.76,VWS V14.01,2013-08-20 00:06:00,